createdAt,value
2019-05-10T00:01:00.755Z,10.57
2019-05-10T00:03:47.915Z,10.55
2019-05-10T00:06:35.133Z,10.40
2019-05-10T00:09:05.286Z,10.39
2019-05-10T00:11:44.043Z,10.44
2019-05-10T00:14:13.554Z,10.38
2019-05-10T00:16:43.793Z,10.38
2019-05-10T00:19:13.445Z,10.38
2019-05-10T00:21:43.162Z,10.38
2019-05-10T00:24:12.816Z,10.25
2019-05-10T00:26:42.657Z,10.15
2019-05-10T00:29:12.301Z,10.26
2019-05-10T00:31:41.899Z,10.25
2019-05-10T00:34:11.558Z,10.20
2019-05-10T00:36:41.166Z,10.20
2019-05-10T00:39:10.809Z,10.19
2019-05-10T00:41:40.466Z,10.13
2019-05-10T00:44:10.113Z,10.10
2019-05-10T00:46:39.777Z,10.12
2019-05-10T00:49:09.381Z,10.07
2019-05-10T00:51:39.083Z,10.10
2019-05-10T00:54:08.783Z,10.05
2019-05-10T00:56:38.489Z,10.13
2019-05-10T00:59:08.129Z,10.13
2019-05-10T01:01:37.732Z,10.09
2019-05-10T01:05:26.082Z,10.08
2019-05-10T01:07:55.806Z,10.11
2019-05-10T01:10:25.465Z,10.04
2019-05-10T01:12:55.328Z,10.03
2019-05-10T01:15:25.015Z,10.01
2019-05-10T01:17:54.782Z,10.09
2019-05-10T01:20:24.391Z,10.03
2019-05-10T01:22:54.077Z,10.05
2019-05-10T01:25:34.538Z,10.02
2019-05-10T01:27:56.773Z,10.04
2019-05-10T01:30:26.613Z,10.08
2019-05-10T01:32:56.755Z,10.12
2019-05-10T01:35:26.596Z,10.08
2019-05-10T01:37:56.275Z,10.05
2019-05-10T01:40:26.122Z,10.09
2019-05-10T01:42:55.827Z,10.00
2019-05-10T01:45:25.507Z,9.96
2019-05-10T01:47:55.228Z,9.93
2019-05-10T01:50:24.931Z,9.97
2019-05-10T01:52:54.579Z,9.85
2019-05-10T01:55:24.210Z,9.93
2019-05-10T01:57:54.004Z,9.88
2019-05-10T02:00:23.819Z,9.88
2019-05-10T02:02:53.481Z,9.84
2019-05-10T02:05:23.240Z,9.92
2019-05-10T02:07:52.959Z,9.90
2019-05-10T02:10:22.738Z,9.83
2019-05-10T02:12:52.275Z,9.82
2019-05-10T02:15:22.157Z,9.75
2019-05-10T02:17:52.050Z,9.67
2019-05-10T02:20:21.736Z,9.65
2019-05-10T02:22:51.723Z,9.71
2019-05-10T02:25:21.398Z,9.78
2019-05-10T02:27:51.263Z,9.68
2019-05-10T02:30:21.013Z,9.71
2019-05-10T02:32:50.677Z,9.63
2019-05-10T02:35:20.318Z,9.64
2019-05-10T02:37:49.972Z,9.65
2019-05-10T02:40:20.037Z,9.62
2019-05-10T02:42:49.838Z,9.55
2019-05-10T02:45:19.943Z,9.48
2019-05-10T02:47:49.703Z,9.54
2019-05-10T02:50:19.933Z,9.55
2019-05-10T02:52:49.687Z,9.52
2019-05-10T02:55:19.513Z,9.43
2019-05-10T02:57:49.744Z,9.43
2019-05-10T03:00:19.997Z,9.34
2019-05-10T03:02:50.359Z,9.29
2019-05-10T03:05:20.018Z,9.28
2019-05-10T03:07:51.323Z,9.24
2019-05-10T03:10:21.005Z,9.28
2019-05-10T03:12:53.360Z,9.22
2019-05-10T03:15:23.234Z,9.19
2019-05-10T03:17:55.922Z,9.23
2019-05-10T03:20:26.159Z,9.20
2019-05-10T03:22:57.039Z,9.20
2019-05-10T03:25:26.795Z,9.14
2019-05-10T03:27:58.409Z,9.15
2019-05-10T03:30:28.509Z,9.21
2019-05-10T03:32:58.558Z,9.21
2019-05-10T03:35:28.397Z,9.23
2019-05-10T03:37:58.744Z,9.23
2019-05-10T03:40:29.019Z,9.18
2019-05-10T03:42:59.211Z,9.14
2019-05-10T03:45:29.468Z,9.16
2019-05-10T03:47:59.451Z,9.19
2019-05-10T03:50:29.614Z,9.17
2019-05-10T03:52:59.771Z,9.14
2019-05-10T03:55:29.970Z,9.05
2019-05-10T03:58:00.179Z,9.00
2019-05-10T04:00:30.387Z,9.06
2019-05-10T04:03:00.708Z,8.95
2019-05-10T04:05:31.020Z,8.94
2019-05-10T04:08:01.183Z,8.81
2019-05-10T04:10:31.601Z,8.76
2019-05-10T04:13:02.107Z,8.64
2019-05-10T04:15:32.263Z,8.75
2019-05-10T04:18:02.516Z,8.80
2019-05-10T04:20:32.652Z,8.73
2019-05-10T04:23:02.914Z,8.79
2019-05-10T04:25:33.155Z,8.77
2019-05-10T04:28:03.670Z,8.72
2019-05-10T04:30:34.032Z,8.70
2019-05-10T04:33:37.484Z,8.78
2019-05-10T04:36:12.062Z,8.80
2019-05-10T04:38:39.696Z,8.78
2019-05-10T04:41:10.025Z,8.83
2019-05-10T04:43:40.287Z,8.93
2019-05-10T04:46:10.502Z,8.91
2019-05-10T04:48:40.729Z,8.99
2019-05-10T04:51:11.138Z,9.05
2019-05-10T04:53:41.719Z,9.18
2019-05-10T04:56:11.777Z,9.23
2019-05-10T04:58:41.816Z,9.16
2019-05-10T05:01:12.046Z,9.14
2019-05-10T05:03:42.388Z,9.27
2019-05-10T05:06:12.752Z,9.23
2019-05-10T05:08:43.186Z,9.11
2019-05-10T05:11:13.406Z,9.09
2019-05-10T05:13:43.760Z,9.35
2019-05-10T05:16:14.105Z,9.28
2019-05-10T05:18:44.474Z,9.45
2019-05-10T05:21:14.855Z,9.53
2019-05-10T05:23:45.125Z,9.55
2019-05-10T05:26:15.525Z,9.74
2019-05-10T05:28:45.867Z,9.94
2019-05-10T05:31:15.987Z,10.11
2019-05-10T05:33:46.103Z,10.29
2019-05-10T05:36:16.405Z,10.56
2019-05-10T05:38:49.374Z,10.85
2019-05-10T05:41:18.806Z,11.16
2019-05-10T05:43:49.264Z,11.41
2019-05-10T05:46:19.639Z,11.61
2019-05-10T05:48:51.628Z,11.68
2019-05-10T05:51:21.227Z,11.58
2019-05-10T05:53:51.770Z,11.72
2019-05-10T05:56:22.119Z,11.81
2019-05-10T05:58:52.155Z,12.08
2019-05-10T06:01:26.201Z,12.35
2019-05-10T06:03:53.391Z,12.38
2019-05-10T06:06:23.735Z,12.55
2019-05-10T06:08:54.628Z,12.39
2019-05-10T06:11:29.740Z,12.54
2019-05-10T06:14:03.590Z,12.87
2019-05-10T06:16:30.481Z,12.92
2019-05-10T06:19:00.789Z,12.89
2019-05-10T06:21:30.858Z,13.20
2019-05-10T06:24:01.113Z,13.20
2019-05-10T06:26:31.414Z,13.32
2019-05-10T06:29:04.487Z,12.88
2019-05-10T06:31:33.633Z,12.86
2019-05-10T06:34:03.755Z,12.54
2019-05-10T06:36:34.132Z,12.34
2019-05-10T06:39:06.315Z,12.37
2019-05-10T06:41:35.675Z,12.51
2019-05-10T06:44:06.022Z,12.40
2019-05-10T06:46:36.339Z,12.19
2019-05-10T06:49:09.647Z,12.08
2019-05-10T06:51:42.963Z,12.33
2019-05-10T06:54:10.641Z,12.26
2019-05-10T06:56:40.843Z,12.07
2019-05-10T06:59:13.839Z,12.26
2019-05-10T07:01:45.898Z,12.38
2019-05-10T07:04:14.124Z,12.36
2019-05-10T07:06:44.380Z,12.23
2019-05-10T07:09:14.914Z,12.31
2019-05-10T07:11:45.243Z,12.21
2019-05-10T07:14:15.742Z,12.10
2019-05-10T07:16:46.242Z,12.41
2019-05-10T07:19:17.104Z,12.34
2019-05-10T07:21:51.054Z,12.22
2019-05-10T07:24:25.466Z,12.38
2019-05-10T07:26:51.270Z,12.69
2019-05-10T07:29:30.025Z,12.51
2019-05-10T07:31:52.786Z,12.58
2019-05-10T07:34:23.077Z,12.63
2019-05-10T07:36:53.351Z,12.85
2019-05-10T07:39:23.723Z,12.92
2019-05-10T07:41:54.037Z,12.94
2019-05-10T07:44:24.622Z,12.93
2019-05-10T07:46:58.328Z,13.07
2019-05-10T07:49:30.253Z,13.11
2019-05-10T07:52:02.077Z,13.32
2019-05-10T07:54:30.733Z,13.40
2019-05-10T07:57:01.019Z,13.34
2019-05-10T07:59:41.959Z,13.51
2019-05-10T08:02:05.960Z,13.42
2019-05-10T08:04:35.052Z,13.40
2019-05-10T08:07:07.584Z,13.33
2019-05-10T08:09:44.643Z,13.45
2019-05-10T08:12:09.846Z,13.72
2019-05-10T08:14:44.466Z,13.97
2019-05-10T08:17:12.370Z,14.00
2019-05-10T08:19:42.575Z,13.97
2019-05-10T08:22:14.802Z,13.95
2019-05-10T08:24:52.713Z,14.13
2019-05-10T08:27:17.005Z,14.28
2019-05-10T08:29:52.977Z,14.16
2019-05-10T08:32:24.144Z,14.29
2019-05-10T08:34:53.150Z,14.55
2019-05-10T08:37:31.057Z,14.41
2019-05-10T08:39:55.981Z,14.68
2019-05-10T08:42:41.897Z,15.01
2019-05-10T08:45:03.828Z,15.07
2019-05-10T08:47:32.173Z,15.30
2019-05-10T08:50:18.432Z,15.28
2019-05-10T08:52:34.117Z,15.17
2019-05-10T08:55:06.333Z,15.42
2019-05-10T08:57:43.398Z,15.31
2019-05-10T09:00:13.075Z,15.08
2019-05-10T09:02:42.945Z,15.13
2019-05-10T09:05:13.657Z,14.84
2019-05-10T09:07:45.384Z,14.54
2019-05-10T09:10:15.889Z,14.61
2019-05-10T09:12:51.122Z,14.70
2019-05-10T09:15:18.103Z,14.94
2019-05-10T09:17:48.412Z,14.78
2019-05-10T09:20:21.778Z,14.89
2019-05-10T09:22:52.871Z,15.33
2019-05-10T09:25:28.756Z,15.54
2019-05-10T09:27:54.198Z,15.12
2019-05-10T09:30:37.090Z,15.03
2019-05-10T09:33:10.349Z,15.23
2019-05-10T09:35:43.673Z,15.24
2019-05-10T09:38:12.498Z,15.13
2019-05-10T09:40:51.175Z,15.21
2019-05-10T09:43:14.977Z,15.37
2019-05-10T09:45:45.341Z,15.19
2019-05-10T09:48:15.723Z,15.26
2019-05-10T09:50:46.953Z,15.59
2019-05-10T09:53:25.500Z,15.65
2019-05-10T09:55:55.330Z,15.45
2019-05-10T09:58:22.465Z,15.61
2019-05-10T10:00:52.975Z,15.42
2019-05-10T10:03:23.311Z,15.34
2019-05-10T10:05:55.073Z,15.28
2019-05-10T10:08:28.109Z,15.23
2019-05-10T10:11:01.104Z,15.18
2019-05-10T10:13:39.293Z,15.38
2019-05-10T10:16:03.930Z,15.20
2019-05-10T10:18:33.424Z,15.06
2019-05-10T10:21:03.696Z,15.24
2019-05-10T10:23:37.804Z,15.40
2019-05-10T10:26:07.223Z,14.98
2019-05-10T10:28:49.787Z,15.33
2019-05-10T10:31:27.099Z,15.23
2019-05-10T10:33:58.222Z,15.13
2019-05-10T10:36:23.890Z,14.99
2019-05-10T10:38:53.983Z,15.31
2019-05-10T10:41:26.346Z,15.41
2019-05-10T10:43:58.335Z,15.32
2019-05-10T10:46:28.295Z,15.42
2019-05-10T10:48:58.472Z,15.77
2019-05-10T10:51:32.089Z,15.90
2019-05-10T10:54:00.989Z,16.10
2019-05-10T10:56:31.245Z,16.00
2019-05-10T10:59:01.621Z,16.06
2019-05-10T11:01:46.303Z,15.97
2019-05-10T11:04:07.996Z,16.30
2019-05-10T11:06:34.885Z,16.69
2019-05-10T11:09:07.829Z,17.01
2019-05-10T11:11:39.268Z,17.11
2019-05-10T11:14:11.082Z,17.19
2019-05-10T11:16:41.524Z,16.99
2019-05-10T11:19:15.522Z,17.19
2019-05-10T11:21:43.794Z,17.27
2019-05-10T11:24:18.214Z,17.35
2019-05-10T11:26:46.164Z,17.50
2019-05-10T11:29:22.977Z,17.36
2019-05-10T11:32:09.056Z,17.27
2019-05-10T11:34:21.659Z,17.35
2019-05-10T11:36:52.082Z,17.45
2019-05-10T11:39:26.499Z,17.62
2019-05-10T11:42:02.184Z,17.80
2019-05-10T11:44:25.949Z,17.88
2019-05-10T11:47:01.481Z,17.99
2019-05-10T11:49:43.540Z,17.76
2019-05-10T11:52:29.232Z,17.98
2019-05-10T11:55:11.412Z,17.91
2019-05-10T11:57:44.124Z,18.12
2019-05-10T12:00:24.663Z,18.15
2019-05-10T12:03:03.211Z,18.32
2019-05-10T12:05:20.506Z,18.64
2019-05-10T12:07:51.284Z,18.66
2019-05-10T12:10:24.891Z,18.35
2019-05-10T12:13:06.528Z,18.70
2019-05-10T12:15:25.665Z,18.58
2019-05-10T12:17:59.537Z,18.40
2019-05-10T12:20:46.398Z,18.60
2019-05-10T12:23:03.415Z,18.16
2019-05-10T12:25:46.930Z,18.32
2019-05-10T12:28:02.524Z,18.37
2019-05-10T12:30:35.343Z,18.62
2019-05-10T12:33:09.542Z,18.91
2019-05-10T12:35:41.867Z,19.04
2019-05-10T12:38:11.210Z,19.23
2019-05-10T12:40:42.492Z,19.48
2019-05-10T12:43:12.833Z,19.59
2019-05-10T12:45:43.085Z,19.77
2019-05-10T12:48:13.306Z,19.65
2019-05-10T12:50:44.223Z,19.36
2019-05-10T12:53:18.392Z,19.31
2019-05-10T12:55:46.876Z,19.32
2019-05-10T12:58:17.491Z,19.36
2019-05-10T13:00:52.525Z,19.28
2019-05-10T13:03:19.832Z,19.02
2019-05-10T13:05:52.908Z,19.47
2019-05-10T13:08:22.718Z,19.55
2019-05-10T13:10:52.987Z,19.63
2019-05-10T13:13:27.121Z,19.55
2019-05-10T13:15:55.229Z,19.68
2019-05-10T13:18:49.135Z,19.67
2019-05-10T13:20:57.518Z,19.18
2019-05-10T13:23:27.788Z,18.64
2019-05-10T13:25:58.166Z,18.32
2019-05-10T13:28:28.537Z,18.78
2019-05-10T13:30:59.868Z,19.21
2019-05-10T13:33:40.716Z,19.47
2019-05-10T13:36:02.023Z,19.82
2019-05-10T13:38:36.820Z,20.05
2019-05-10T13:41:04.283Z,19.85
2019-05-10T13:43:34.376Z,20.08
2019-05-10T13:46:04.562Z,20.67
2019-05-10T13:48:34.965Z,20.31
2019-05-10T13:51:05.241Z,20.11
2019-05-10T13:53:35.586Z,19.94
2019-05-10T13:56:05.784Z,20.01
2019-05-10T13:58:35.999Z,19.76
2019-05-10T14:01:12.375Z,20.63
2019-05-10T14:03:45.205Z,21.24
2019-05-10T14:06:09.133Z,21.78
2019-05-10T14:08:42.972Z,22.14
2019-05-10T14:11:11.276Z,21.99
2019-05-10T14:13:43.199Z,21.15
2019-05-10T14:16:18.247Z,20.78
2019-05-10T14:18:45.157Z,21.45
2019-05-10T14:21:15.342Z,21.27
2019-05-10T14:23:45.535Z,21.22
2019-05-10T14:26:18.189Z,20.80
2019-05-10T14:28:53.263Z,20.28
2019-05-10T14:31:19.596Z,20.15
2019-05-10T14:34:14.338Z,20.28
2019-05-10T14:36:21.687Z,20.27
2019-05-10T14:38:53.986Z,19.70
2019-05-10T14:41:23.166Z,20.07
2019-05-10T14:43:53.471Z,20.12
2019-05-10T14:46:23.681Z,20.30
2019-05-10T14:48:54.019Z,20.21
2019-05-10T14:51:40.384Z,19.92
2019-05-10T14:53:58.355Z,19.80
2019-05-10T14:56:28.385Z,19.51
2019-05-10T14:58:58.788Z,19.78
2019-05-10T15:01:29.402Z,19.69
2019-05-10T15:03:59.529Z,19.52
2019-05-10T15:06:30.777Z,19.45
2019-05-10T15:09:02.196Z,19.17
2019-05-10T15:11:33.265Z,19.08
2019-05-10T15:14:05.039Z,19.09
2019-05-10T15:16:35.486Z,19.11
2019-05-10T15:19:05.766Z,19.24
2019-05-10T15:21:36.084Z,18.89
2019-05-10T15:24:06.303Z,18.93
2019-05-10T15:26:37.504Z,18.98
2019-05-10T15:29:08.461Z,18.91
2019-05-10T15:31:38.985Z,18.80
2019-05-10T15:34:09.107Z,18.66
2019-05-10T15:36:39.271Z,18.68
2019-05-10T15:39:09.571Z,18.57
2019-05-10T15:41:39.868Z,18.52
2019-05-10T15:44:10.043Z,18.52
2019-05-10T15:46:42.375Z,18.57
2019-05-10T15:49:13.386Z,18.56
2019-05-10T15:51:49.083Z,18.52
2019-05-10T15:54:15.290Z,18.57
2019-05-10T15:56:45.597Z,18.56
2019-05-10T15:59:19.467Z,18.61
2019-05-10T16:01:47.427Z,18.67
2019-05-10T16:04:17.929Z,18.52
2019-05-10T16:06:48.157Z,18.55
2019-05-10T16:09:19.329Z,18.56
2019-05-10T16:11:49.890Z,18.32
2019-05-10T16:14:20.043Z,18.30
2019-05-10T16:16:50.209Z,18.44
2019-05-10T16:19:20.529Z,18.32
2019-05-10T16:21:52.037Z,18.28
2019-05-10T16:24:26.481Z,18.34
2019-05-10T16:26:59.895Z,18.32
2019-05-10T16:29:26.542Z,18.25
2019-05-10T16:31:56.644Z,18.20
2019-05-10T16:34:32.360Z,18.14
2019-05-10T16:36:58.502Z,18.14
2019-05-10T16:39:28.854Z,18.04
2019-05-10T16:41:59.063Z,18.17
2019-05-10T16:44:29.542Z,18.07
2019-05-10T16:46:59.957Z,18.02
2019-05-10T16:49:30.252Z,18.01
2019-05-10T16:52:00.617Z,17.92
2019-05-10T16:54:31.119Z,17.71
2019-05-10T16:57:01.695Z,17.67
2019-05-10T16:59:35.034Z,17.60
2019-05-10T17:02:06.270Z,17.58
2019-05-10T17:04:37.854Z,17.41
2019-05-10T17:07:13.042Z,17.30
2019-05-10T17:09:39.822Z,17.22
2019-05-10T17:12:10.243Z,17.05
2019-05-10T17:14:40.380Z,16.94
2019-05-10T17:17:10.699Z,16.86
2019-05-10T17:19:41.052Z,16.86
2019-05-10T17:22:11.969Z,16.83
2019-05-10T17:24:42.592Z,16.71
2019-05-10T17:27:12.789Z,16.66
2019-05-10T17:29:44.535Z,16.58
2019-05-10T17:32:18.879Z,16.53
2019-05-10T17:34:46.759Z,16.50
2019-05-10T17:37:16.878Z,16.45
2019-05-10T17:39:47.343Z,16.41
2019-05-10T17:42:17.536Z,16.35
2019-05-10T17:44:48.116Z,16.36
2019-05-10T17:47:18.480Z,16.34
2019-05-10T17:49:48.725Z,16.33
2019-05-10T17:52:18.971Z,16.10
2019-05-10T17:54:49.311Z,16.09
2019-05-10T17:57:19.497Z,16.00
2019-05-10T17:59:53.040Z,15.96
2019-05-10T18:02:21.975Z,15.89
2019-05-10T18:04:52.176Z,15.80
2019-05-10T18:07:22.434Z,15.76
2019-05-10T18:09:52.808Z,15.69
2019-05-10T18:12:26.766Z,15.67
2019-05-10T18:14:55.862Z,15.66
2019-05-10T18:17:27.613Z,15.65
2019-05-10T18:20:02.323Z,15.66
2019-05-10T18:22:30.024Z,15.63
2019-05-10T18:25:00.258Z,15.54
2019-05-10T18:27:30.835Z,15.41
2019-05-10T18:30:01.155Z,15.27
2019-05-10T18:32:35.363Z,15.25
2019-05-10T18:35:13.124Z,15.15
2019-05-10T18:37:34.979Z,15.00
2019-05-10T18:40:09.319Z,14.76
2019-05-10T18:42:38.667Z,14.66
2019-05-10T18:45:09.306Z,14.55
2019-05-10T18:47:39.547Z,14.54
2019-05-10T18:50:10.310Z,14.53
2019-05-10T18:52:40.667Z,14.47
2019-05-10T18:55:10.793Z,14.44
2019-05-10T18:57:45.310Z,14.33
2019-05-10T19:00:17.734Z,14.31
2019-05-10T19:02:49.659Z,14.34
2019-05-10T19:05:17.006Z,14.58
2019-05-10T19:07:47.213Z,14.38
2019-05-10T19:10:17.125Z,14.27
2019-05-10T19:12:47.666Z,14.16
2019-05-10T19:15:18.723Z,14.41
2019-05-10T19:17:48.783Z,14.29
2019-05-10T19:20:18.906Z,14.14
2019-05-10T19:22:49.040Z,14.05
2019-05-10T19:25:18.832Z,14.07
2019-05-10T19:27:50.841Z,14.06
2019-05-10T19:30:22.265Z,14.03
2019-05-10T19:32:56.290Z,13.98
2019-05-10T19:35:23.444Z,13.87
2019-05-10T19:37:53.209Z,13.87
2019-05-10T19:40:23.180Z,13.85
2019-05-10T19:42:52.928Z,13.83
2019-05-10T19:45:22.664Z,13.81
2019-05-10T19:47:55.652Z,13.80
2019-05-10T19:50:30.296Z,13.81
2019-05-10T19:52:58.478Z,13.78
2019-05-10T19:55:26.757Z,13.76
2019-05-10T19:57:56.624Z,13.76
2019-05-10T20:00:26.390Z,13.76
2019-05-10T20:02:56.128Z,13.74
2019-05-10T20:05:25.859Z,13.72
2019-05-10T20:07:55.581Z,13.70
2019-05-10T20:10:25.258Z,13.67
2019-05-10T20:12:54.953Z,13.67
2019-05-10T20:15:24.651Z,13.70
2019-05-10T20:17:54.316Z,13.72
2019-05-10T20:20:24.188Z,13.67
2019-05-10T20:22:54.488Z,13.61
2019-05-10T20:25:24.179Z,13.58
2019-05-10T20:27:53.961Z,13.54
2019-05-10T20:30:23.922Z,13.49
2019-05-10T20:32:53.602Z,13.47
2019-05-10T20:35:23.322Z,13.43
2019-05-10T20:38:01.333Z,13.47
2019-05-10T20:40:24.431Z,13.52
2019-05-10T20:42:54.111Z,13.52
2019-05-10T20:45:23.839Z,13.50
2019-05-10T20:47:53.614Z,13.44
2019-05-10T20:50:23.458Z,13.43
2019-05-10T20:52:53.317Z,13.42
2019-05-10T20:55:23.086Z,13.40
2019-05-10T20:57:52.808Z,13.44
2019-05-10T21:00:24.201Z,13.49
2019-05-10T21:02:54.124Z,13.52
2019-05-10T21:05:23.959Z,13.52
2019-05-10T21:07:53.587Z,13.55
2019-05-10T21:10:23.323Z,13.56
2019-05-10T21:12:52.933Z,13.60
2019-05-10T21:15:22.633Z,13.59
2019-05-10T21:17:52.441Z,13.57
2019-05-10T21:20:22.199Z,13.55
2019-05-10T21:22:51.863Z,13.50
2019-05-10T21:25:21.554Z,13.50
2019-05-10T21:27:51.284Z,13.52
2019-05-10T21:30:21.120Z,13.52
2019-05-10T21:32:50.821Z,13.49
2019-05-10T21:35:20.607Z,13.43
2019-05-10T21:37:50.215Z,13.40
2019-05-10T21:40:19.906Z,13.38
2019-05-10T21:42:49.600Z,13.39
2019-05-10T21:45:19.323Z,13.40
2019-05-10T21:47:51.558Z,13.35
2019-05-10T21:50:20.617Z,13.33
2019-05-10T21:52:50.202Z,13.33
2019-05-10T21:55:19.907Z,13.34
2019-05-10T21:57:49.825Z,13.32
2019-05-10T22:00:21.583Z,13.24
2019-05-10T22:02:51.465Z,13.22
2019-05-10T22:05:21.211Z,13.15
2019-05-10T22:07:51.002Z,13.00
2019-05-10T22:10:20.658Z,12.97
2019-05-10T22:12:50.282Z,13.02
2019-05-10T22:15:20.116Z,12.93
2019-05-10T22:17:49.795Z,12.90
2019-05-10T22:20:19.667Z,12.76
2019-05-10T22:22:49.179Z,12.77
2019-05-10T22:25:18.917Z,12.81
2019-05-10T22:27:48.729Z,12.81
2019-05-10T22:30:18.890Z,12.78
2019-05-10T22:32:48.712Z,12.76
2019-05-10T22:35:18.473Z,12.82
2019-05-10T22:37:48.175Z,12.87
2019-05-10T22:40:18.154Z,12.84
2019-05-10T22:42:47.954Z,12.92
2019-05-10T22:45:16.821Z,12.93
2019-05-10T22:47:46.651Z,12.93
2019-05-10T22:50:16.876Z,12.93
2019-05-10T22:52:46.520Z,12.88
2019-05-10T22:55:16.239Z,12.86
2019-05-10T22:57:45.953Z,12.79
2019-05-10T23:00:16.373Z,12.80
2019-05-10T23:02:46.102Z,12.79
2019-05-10T23:05:15.992Z,12.80
2019-05-10T23:07:45.728Z,12.76
2019-05-10T23:10:15.814Z,12.79
2019-05-10T23:12:45.534Z,13.12
2019-05-10T23:15:15.337Z,13.04
2019-05-10T23:17:45.152Z,12.96
2019-05-10T23:20:14.891Z,12.92
2019-05-10T23:22:44.648Z,12.89
2019-05-10T23:25:14.326Z,12.71
2019-05-10T23:27:44.183Z,12.79
2019-05-10T23:30:13.944Z,12.77
2019-05-10T23:32:43.785Z,12.73
2019-05-10T23:35:13.667Z,12.76
2019-05-10T23:37:43.385Z,12.77
2019-05-10T23:40:13.188Z,12.72
2019-05-10T23:42:42.992Z,12.67
2019-05-10T23:45:13.536Z,12.67
2019-05-10T23:47:43.170Z,12.67
2019-05-10T23:50:12.134Z,12.68
2019-05-10T23:52:41.937Z,12.66
2019-05-10T23:55:11.816Z,12.64
2019-05-10T23:57:41.408Z,12.66
